Time;durP1;ratioP1;P1;durP2;ratioP2;P2;SDS_P1;SDS_P2;PMS_P1;PMS_P2;Temp;Humidity;BMP_temperature;BMP_pressure;BME280_temperature;BME280_humidity;BME280_pressure;Samples;Min_cycle;Max_cycle;Signal;HPM_P1;HPM_P2
2021/04/24 00:00:45;;;;;;;6.60;2.83;;;;;;;3.37;72.20;99047.91;1750050;80;21174;-65
2021/04/24 00:03:14;;;;;;;6.55;3.08;;;;;;;3.33;72.67;99057.09;1750082;80;21173;-67
2021/04/24 00:05:44;;;;;;;5.62;3.10;;;;;;;3.31;72.80;99061.29;1750082;80;21063;-66
2021/04/24 00:08:17;;;;;;;7.37;2.87;;;;;;;3.30;73.11;99058.25;1750255;80;21048;-71
2021/04/24 00:10:49;;;;;;;4.08;2.20;;;;;;;3.28;73.18;99052.62;1750067;80;21505;-62
2021/04/24 00:13:17;;;;;;;5.70;2.75;;;;;;;3.27;73.24;99055.59;1750094;81;21047;-68
2021/04/24 00:15:46;;;;;;;7.58;2.90;;;;;;;3.28;73.49;99059.86;1750075;80;21633;-67
2021/04/24 00:18:16;;;;;;;6.08;2.77;;;;;;;3.26;73.82;99058.55;1749968;81;21075;-66
2021/04/24 00:20:44;;;;;;;4.95;2.60;;;;;;;3.25;74.15;99053.37;1750348;80;21011;-65
2021/04/24 00:23:13;;;;;;;7.47;3.27;;;;;;;3.20;74.52;99060.82;1750157;80;21236;-65
2021/04/24 00:25:42;;;;;;;5.03;2.62;;;;;;;3.17;74.79;99054.33;1750066;80;21058;-66
2021/04/24 00:28:10;;;;;;;7.25;3.00;;;;;;;3.13;75.23;99049.92;1750292;80;21557;-63
2021/04/24 00:30:39;;;;;;;4.97;2.70;;;;;;;3.10;75.88;99043.40;1750335;80;21630;-65
2021/04/24 00:33:08;;;;;;;5.83;3.08;;;;;;;3.09;76.08;99056.97;1750342;80;21038;-64
2021/04/24 00:35:36;;;;;;;4.75;3.08;;;;;;;3.06;76.53;99054.70;1750092;81;21185;-65
2021/04/24 00:38:04;;;;;;;5.05;2.52;;;;;;;3.03;76.80;99051.62;1750153;80;21197;-64
2021/04/24 00:40:32;;;;;;;5.95;3.08;;;;;;;2.99;77.05;99056.98;1750246;80;21043;-66
2021/04/24 00:43:00;;;;;;;6.47;2.90;;;;;;;2.97;77.59;99048.80;1750152;80;21062;-66
2021/04/24 00:45:29;;;;;;;6.12;3.15;;;;;;;2.92;77.84;99057.52;1750128;80;21177;-68
2021/04/24 00:48:00;;;;;;;5.00;2.80;;;;;;;2.89;78.37;99052.70;1750225;80;21019;-71
2021/04/24 00:50:32;;;;;;;9.10;3.40;;;;;;;2.86;78.67;99052.58;1750162;80;21189;-68
2021/04/24 00:53:01;;;;;;;6.45;3.22;;;;;;;2.82;78.75;99049.91;1750245;80;21122;-68
2021/04/24 00:55:30;;;;;;;6.53;2.80;;;;;;;2.86;79.03;99048.76;1750008;80;21035;-68
2021/04/24 00:58:00;;;;;;;5.95;2.75;;;;;;;2.89;79.19;99047.61;1750130;80;21201;-68
2021/04/24 01:00:28;;;;;;;6.30;2.87;;;;;;;2.91;79.38;99043.45;1750035;80;21019;-67
2021/04/24 01:02:57;;;;;;;6.78;3.35;;;;;;;2.96;79.43;99045.38;1750031;80;21208;-68
2021/04/24 01:05:35;;;;;;;6.30;3.20;;;;;;;2.99;79.38;99049.73;1750343;80;21055;-64
2021/04/24 01:08:04;;;;;;;7.15;2.80;;;;;;;2.98;79.37;99050.56;1750085;80;21600;-66
2021/04/24 01:10:38;;;;;;;6.23;2.80;;;;;;;2.94;79.57;99045.72;1750257;80;21075;-67
2021/04/24 01:13:08;;;;;;;8.10;3.15;;;;;;;2.94;79.71;99046.98;1750107;80;21027;-70
2021/04/24 01:15:37;;;;;;;6.72;3.10;;;;;;;2.90;79.82;99040.41;1750019;80;21051;-72
2021/04/24 01:18:07;;;;;;;5.30;3.05;;;;;;;2.87;79.86;99041.56;1750208;80;21564;-67
2021/04/24 01:20:36;;;;;;;6.95;3.10;;;;;;;2.86;80.17;99042.38;1750305;80;21079;-68
2021/04/24 01:23:06;;;;;;;5.62;2.85;;;;;;;2.82;80.16;99039.71;1750227;80;21244;-68
2021/04/24 01:25:39;;;;;;;7.12;3.72;;;;;;;2.85;80.29;99041.90;1750039;80;21177;-66
2021/04/24 01:28:08;;;;;;;8.15;3.30;;;;;;;2.85;80.28;99045.34;1750250;80;21066;-64
2021/04/24 01:30:41;;;;;;;9.63;3.47;;;;;;;2.81;80.50;99046.87;1749946;80;21279;-67
2021/04/24 01:33:11;;;;;;;6.62;3.20;;;;;;;2.77;80.67;99043.74;1685575;83;21086;-66
2021/04/24 01:35:42;;;;;;;9.45;3.22;;;;;;;2.76;80.80;99039.43;1750216;81;21039;-64
2021/04/24 01:38:12;;;;;;;6.00;3.12;;;;;;;2.78;80.89;99045.47;1750188;80;21173;-65
2021/04/24 01:40:41;;;;;;;7.40;3.25;;;;;;;2.80;80.92;99046.41;1749997;80;21173;-64
2021/04/24 01:43:10;;;;;;;7.25;3.58;;;;;;;2.82;80.91;99049.01;1750195;80;21182;-64
2021/04/24 01:45:39;;;;;;;6.33;2.87;;;;;;;2.81;80.97;99053.24;1750275;80;21075;-65
2021/04/24 01:48:08;;;;;;;7.83;3.72;;;;;;;2.74;81.09;99043.58;1750300;80;21114;-66
2021/04/24 01:50:41;;;;;;;6.40;2.80;;;;;;;2.69;81.33;99039.97;1750249;82;21047;-64
2021/04/24 01:53:17;;;;;;;5.95;3.20;;;;;;;2.62;81.70;99039.26;1750009;80;21461;-64
2021/04/24 01:55:48;;;;;;;9.05;3.80;;;;;;;2.56;82.04;99030.92;1750151;80;21035;-70
2021/04/24 01:58:22;;;;;;;9.38;3.40;;;;;;;2.55;82.22;99032.15;1750044;80;21173;-69
2021/04/24 02:01:00;;;;;;;7.40;3.42;;;;;;;2.55;82.62;99035.97;1750002;80;21043;-72
2021/04/24 02:03:30;;;;;;;5.58;2.85;;;;;;;2.49;82.66;99040.77;1750101;80;21039;-68
2021/04/24 02:05:58;;;;;;;7.05;2.83;;;;;;;2.45;83.11;99033.82;1750090;80;21051;-68
2021/04/24 02:08:42;;;;;;;6.15;2.90;;;;;;;2.44;83.11;99032.06;1750350;82;21231;-67
2021/04/24 02:11:11;;;;;;;8.53;3.15;;;;;;;2.43;83.41;99031.61;1750139;81;21075;-68
2021/04/24 02:13:42;;;;;;;7.03;2.92;;;;;;;2.42;83.47;99036.20;1750322;80;21071;-65
2021/04/24 02:16:13;;;;;;;8.63;2.90;;;;;;;2.41;83.69;99037.89;1750424;80;21019;-66
2021/04/24 02:18:43;;;;;;;7.33;2.85;;;;;;;2.41;83.83;99040.84;1753016;80;21114;-64
2021/04/24 02:21:11;;;;;;;7.62;2.75;;;;;;;2.35;83.91;99037.22;1758326;80;21300;-68
2021/04/24 02:23:40;;;;;;;6.33;3.10;;;;;;;2.31;84.06;99037.88;1758512;80;21480;-65
2021/04/24 02:26:09;;;;;;;8.78;3.40;;;;;;;2.30;84.30;99036.55;1758506;80;21438;-69
2021/04/24 02:28:37;;;;;;;6.05;3.20;;;;;;;2.29;84.56;99035.69;1758158;80;21174;-66
2021/04/24 02:31:05;;;;;;;6.03;2.83;;;;;;;2.29;84.72;99040.78;1758336;80;21054;-66
2021/04/24 02:33:33;;;;;;;8.10;3.55;;;;;;;2.29;84.83;99035.69;1758442;80;21062;-69
2021/04/24 02:36:01;;;;;;;6.83;3.02;;;;;;;2.29;84.89;99034.79;1758524;80;21486;-66
2021/04/24 02:38:34;;;;;;;5.65;2.75;;;;;;;2.30;85.19;99037.42;1758132;80;21015;-73
2021/04/24 02:41:06;;;;;;;4.70;2.55;;;;;;;2.31;85.15;99034.05;1757812;80;21172;-73
2021/04/24 02:43:34;;;;;;;11.38;3.45;;;;;;;2.35;85.21;99037.63;1758135;80;21023;-72
2021/04/24 02:46:04;;;;;;;5.83;3.00;;;;;;;2.38;85.19;99042.45;1758113;80;21027;-73
2021/04/24 02:48:33;;;;;;;6.95;3.37;;;;;;;2.40;85.12;99043.80;1758128;80;21169;-72
2021/04/24 02:51:01;;;;;;;8.05;2.60;;;;;;;2.42;85.17;99043.47;1758420;82;21486;-68
2021/04/24 02:53:29;;;;;;;6.28;2.80;;;;;;;2.44;85.14;99044.80;1758306;80;21050;-68
2021/04/24 02:55:57;;;;;;;10.53;3.22;;;;;;;2.45;85.33;99049.97;1758078;80;21457;-69
2021/04/24 02:58:27;;;;;;;7.22;3.10;;;;;;;2.46;85.30;99047.02;1758056;80;21209;-70
2021/04/24 03:00:57;;;;;;;9.55;2.72;;;;;;;2.51;85.28;99048.09;1758098;80;21473;-69
2021/04/24 03:03:25;;;;;;;6.33;3.30;;;;;;;2.56;85.19;99045.34;1758141;81;21043;-69
2021/04/24 03:05:54;;;;;;;4.92;2.85;;;;;;;2.58;85.08;99046.28;1758313;81;21173;-71
2021/04/24 03:08:23;;;;;;;8.83;3.12;;;;;;;2.58;84.98;99045.02;1758125;80;21043;-71
2021/04/24 03:10:52;;;;;;;7.55;3.45;;;;;;;2.57;85.07;99054.72;1758318;80;21064;-66
2021/04/24 03:13:20;;;;;;;7.22;3.62;;;;;;;2.53;85.06;99059.22;1758298;80;21104;-66
2021/04/24 03:15:48;;;;;;;6.00;3.47;;;;;;;2.53;85.17;99063.05;1758213;80;21042;-70
2021/04/24 03:18:15;;;;;;;5.95;3.15;;;;;;;2.57;85.22;99055.98;1757683;80;21197;-70
2021/04/24 03:20:43;;;;;;;6.47;3.55;;;;;;;2.67;85.15;99062.36;1750338;81;21043;-71
2021/04/24 03:23:11;;;;;;;7.40;3.90;;;;;;;2.76;85.04;99064.05;1750366;80;21520;-70
2021/04/24 03:25:39;;;;;;;7.45;3.90;;;;;;;2.88;84.84;99059.89;1750200;81;20996;-69
2021/04/24 03:28:07;;;;;;;9.68;3.92;;;;;;;2.93;84.61;99064.78;1750094;80;21616;-72
2021/04/24 03:30:35;;;;;;;8.45;4.35;;;;;;;2.97;84.29;99066.64;1750156;82;21044;-69
2021/04/24 03:33:03;;;;;;;7.40;4.42;;;;;;;3.01;84.09;99071.08;1750376;80;21063;-71
2021/04/24 03:35:31;;;;;;;7.83;4.03;;;;;;;3.08;83.95;99071.81;1750449;80;21520;-69
2021/04/24 03:38:00;;;;;;;11.53;4.22;;;;;;;3.14;83.81;99072.05;1750325;80;21034;-69
2021/04/24 03:40:29;;;;;;;12.60;3.90;;;;;;;3.22;83.68;99075.78;1750138;82;21221;-71
2021/04/24 03:42:57;;;;;;;7.45;3.37;;;;;;;3.28;83.25;99074.30;1750166;80;21015;-67
2021/04/24 03:45:27;;;;;;;12.65;3.80;;;;;;;3.28;83.00;99079.41;1750215;81;21019;-65
2021/04/24 03:47:56;;;;;;;6.60;3.22;;;;;;;3.25;82.92;99083.56;1750279;80;21180;-67
2021/04/24 03:50:26;;;;;;;7.30;3.08;;;;;;;3.25;82.80;99088.66;1750074;80;21031;-70
2021/04/24 03:52:55;;;;;;;10.18;3.25;;;;;;;3.29;82.75;99092.64;1750093;80;21062;-69
2021/04/24 03:55:24;;;;;;;9.55;3.55;;;;;;;3.32;82.58;99101.28;1750363;80;21146;-69
2021/04/24 03:57:56;;;;;;;11.50;3.12;;;;;;;3.34;82.28;99094.57;1750057;80;21213;-67
2021/04/24 04:00:28;;;;;;;6.90;3.10;;;;;;;3.40;82.23;99096.50;1750386;80;21119;-68
2021/04/24 04:03:02;;;;;;;7.60;2.92;;;;;;;3.46;82.00;99092.91;1750389;80;21023;-63
2021/04/24 04:05:37;;;;;;;7.47;3.52;;;;;;;3.49;81.52;99096.89;1750449;80;21450;-66
2021/04/24 04:08:07;;;;;;;6.03;2.95;;;;;;;3.48;81.23;99098.54;1750065;80;21035;-68
2021/04/24 04:10:36;;;;;;;4.45;2.72;;;;;;;3.55;81.14;99102.64;1750100;81;21047;-68
2021/04/24 04:13:06;;;;;;;12.93;3.22;;;;;;;3.62;80.74;99103.36;1750295;80;21468;-71
2021/04/24 04:15:35;;;;;;;5.70;3.00;;;;;;;3.71;80.68;99111.37;1750045;80;21043;-61
2021/04/24 04:18:13;;;;;;;7.08;3.12;;;;;;;3.86;80.29;99111.12;1750254;80;21039;-64
2021/04/24 04:20:45;;;;;;;11.28;3.47;;;;;;;3.99;80.03;99115.03;1757257;80;21118;-70
2021/04/24 04:23:14;;;;;;;6.72;3.35;;;;;;;4.09;79.69;99115.44;1758425;80;21169;-69
2021/04/24 04:25:44;;;;;;;6.10;3.00;;;;;;;4.24;79.41;99119.00;1758226;80;21193;-66
2021/04/24 04:28:14;;;;;;;5.85;2.90;;;;;;;4.38;78.98;99116.98;1758037;80;21074;-66
2021/04/24 04:30:43;;;;;;;10.38;3.60;;;;;;;4.49;78.29;99114.83;1758155;80;21282;-67
2021/04/24 04:33:11;;;;;;;5.83;3.25;;;;;;;4.52;77.97;99115.80;1758301;80;21062;-64
2021/04/24 04:35:40;;;;;;;7.58;2.67;;;;;;;4.66;77.59;99114.19;1758028;81;21039;-67
2021/04/24 04:38:08;;;;;;;5.83;2.60;;;;;;;4.67;77.15;99119.75;1758041;80;21173;-65
2021/04/24 04:40:36;;;;;;;7.45;3.05;;;;;;;4.68;76.81;99115.09;1758236;82;21019;-72
2021/04/24 04:43:05;;;;;;;5.70;3.37;;;;;;;4.68;76.61;99112.53;1758072;80;21039;-72
2021/04/24 04:45:35;;;;;;;7.60;3.40;;;;;;;4.64;76.46;99118.37;1758320;80;21473;-71
2021/04/24 04:48:04;;;;;;;7.55;3.12;;;;;;;4.61;76.30;99111.88;1758104;82;21023;-67
2021/04/24 04:50:35;;;;;;;6.00;3.20;;;;;;;4.68;76.29;99111.26;1757969;80;21217;-67
2021/04/24 04:53:04;;;;;;;6.78;3.05;;;;;;;4.66;76.28;99110.36;1758444;80;21189;-66
2021/04/24 04:55:32;;;;;;;9.83;3.30;;;;;;;4.71;76.53;99107.56;1758011;80;21184;-67
2021/04/24 04:58:00;;;;;;;9.40;2.85;;;;;;;4.81;76.48;99107.08;1757982;80;21177;-68
2021/04/24 05:00:28;;;;;;;9.20;3.42;;;;;;;4.92;76.07;99113.44;1758233;80;21070;-70
2021/04/24 05:02:56;;;;;;;5.12;2.50;;;;;;;4.99;75.75;99114.53;1758433;80;21019;-70
2021/04/24 05:05:25;;;;;;;6.20;2.67;;;;;;;5.11;75.48;99115.35;1758023;80;21007;-68
2021/04/24 05:07:53;;;;;;;6.60;2.83;;;;;;;5.26;75.22;99121.00;1758041;80;21050;-72
2021/04/24 05:10:25;;;;;;;6.47;2.67;;;;;;;5.35;74.50;99114.06;1758316;80;21437;-67
2021/04/24 05:12:54;;;;;;;7.47;3.15;;;;;;;5.41;73.81;99116.82;1758144;80;21193;-69
2021/04/24 05:15:22;;;;;;;6.55;2.72;;;;;;;5.54;73.31;99104.02;1758158;80;21079;-69
2021/04/24 05:17:51;;;;;;;4.83;2.52;;;;;;;5.90;73.06;99112.44;1758023;81;21054;-65
2021/04/24 05:20:19;;;;;;;5.28;2.55;;;;;;;6.74;71.28;99116.30;1758009;80;21098;-69
2021/04/24 05:22:48;;;;;;;7.55;3.10;;;;;;;7.08;68.19;99114.27;1758092;81;21067;-64
2021/04/24 05:25:17;;;;;;;5.22;2.77;;;;;;;7.24;67.78;99111.70;1757975;80;21196;-66
2021/04/24 05:27:47;;;;;;;7.40;2.95;;;;;;;8.30;66.47;99109.58;1758242;80;21471;-68
2021/04/24 05:30:18;;;;;;;5.65;2.70;;;;;;;8.96;63.50;99107.13;1757961;80;21213;-66
2021/04/24 05:32:46;;;;;;;5.90;2.87;;;;;;;9.18;62.49;99102.81;1758358;80;21097;-67
2021/04/24 05:35:17;;;;;;;7.42;3.12;;;;;;;8.68;60.73;99115.58;1757951;80;21075;-64
2021/04/24 05:37:45;;;;;;;5.70;2.85;;;;;;;8.02;61.80;99116.66;1758017;80;21018;-70
2021/04/24 05:40:14;;;;;;;6.22;3.02;;;;;;;7.64;62.37;99110.59;1758193;80;21056;-66
2021/04/24 05:42:42;;;;;;;5.45;2.87;;;;;;;7.17;63.32;99119.67;1758153;80;21050;-65
2021/04/24 05:45:14;;;;;;;5.50;2.52;;;;;;;6.77;64.70;99111.66;1758165;80;21188;-65
2021/04/24 05:47:47;;;;;;;6.35;2.70;;;;;;;6.44;65.96;99119.72;1780504;80;21007;-67
2021/04/24 05:50:19;;;;;;;9.40;3.50;;;;;;;6.19;66.77;99123.23;1788908;80;21075;-68
2021/04/24 05:52:48;;;;;;;8.10;3.58;;;;;;;5.98;67.68;99127.28;1788916;80;21042;-67
2021/04/24 05:55:18;;;;;;;7.12;3.22;;;;;;;5.87;68.42;99123.03;1789178;79;21047;-67
2021/04/24 05:57:47;;;;;;;7.05;3.40;;;;;;;6.33;68.13;99127.91;1789254;79;21035;-68
2021/04/24 06:00:20;;;;;;;5.40;2.62;;;;;;;7.29;66.04;99127.23;1789513;79;21039;-68
2021/04/24 06:02:50;;;;;;;10.85;4.17;;;;;;;9.11;60.85;99126.73;1789516;79;21042;-68
2021/04/24 06:05:21;;;;;;;7.45;2.70;;;;;;;10.20;56.83;99131.16;1785965;80;21497;-66
2021/04/24 06:07:49;;;;;;;5.40;2.62;;;;;;;10.34;54.31;99132.70;1789204;79;21462;-67
2021/04/24 06:10:19;;;;;;;6.53;3.00;;;;;;;9.59;54.13;99110.41;1789206;80;21054;-66
2021/04/24 06:12:48;;;;;;;6.67;2.47;;;;;;;9.15;52.69;99128.52;1789469;80;21189;-68
2021/04/24 06:15:20;;;;;;;7.55;2.67;;;;;;;8.71;54.50;99135.35;1789460;80;21449;-69
2021/04/24 06:17:50;;;;;;;3.85;1.92;;;;;;;9.64;54.16;99128.14;1789590;79;21560;-70
2021/04/24 06:20:23;;;;;;;4.30;2.20;;;;;;;11.24;48.15;99136.86;1784874;79;21322;-70
2021/04/24 06:22:51;;;;;;;5.33;1.80;;;;;;;12.33;45.67;99130.09;1743777;81;21233;-70
2021/04/24 06:25:20;;;;;;;3.52;1.60;;;;;;;12.84;44.04;99130.38;1743802;82;21066;-71
2021/04/24 06:27:50;;;;;;;5.67;2.10;;;;;;;13.64;40.68;99127.19;1743865;82;21193;-68
2021/04/24 06:30:22;;;;;;;5.72;2.08;;;;;;;13.56;39.80;99130.61;1733417;82;21185;-70
2021/04/24 06:32:52;;;;;;;3.75;1.77;;;;;;;12.29;41.15;99129.22;1762797;80;21070;-71
2021/04/24 06:35:22;;;;;;;3.42;1.50;;;;;;;11.30;42.25;99133.06;1765248;80;21078;-70
2021/04/24 06:37:52;;;;;;;5.58;1.50;;;;;;;12.02;40.09;99124.70;1751213;80;21047;-68
2021/04/24 06:40:20;;;;;;;4.40;1.45;;;;;;;13.30;38.72;99131.86;1714536;83;21560;-68
2021/04/24 06:42:49;;;;;;;3.98;1.12;;;;;;;13.91;34.98;99128.05;1750145;82;21201;-69
2021/04/24 06:45:18;;;;;;;4.30;1.95;;;;;;;14.54;34.16;99131.92;1750071;82;21050;-67
2021/04/24 06:47:47;;;;;;;3.55;1.55;;;;;;;13.86;35.10;99107.30;1714199;82;21073;-66
2021/04/24 06:50:19;;;;;;;2.42;1.17;;;;;;;12.97;37.17;99134.73;1697601;83;21675;-67
2021/04/24 06:52:49;;;;;;;4.95;1.45;;;;;;;11.98;37.93;99127.25;1705239;82;21093;-67
2021/04/24 06:55:17;;;;;;;2.90;1.22;;;;;;;11.47;38.30;99135.41;1699192;82;21171;-67
2021/04/24 06:57:47;;;;;;;3.72;1.17;;;;;;;12.84;36.55;99127.34;1765386;80;21019;-67
2021/04/24 07:00:17;;;;;;;4.97;1.22;;;;;;;13.81;34.93;99135.41;1766346;80;21663;-64
2021/04/24 07:02:45;;;;;;;6.65;1.25;;;;;;;14.77;33.71;99153.94;1763751;79;21249;-63
2021/04/24 07:05:14;;;;;;;6.47;1.27;;;;;;;15.44;30.69;99137.61;1765544;79;21130;-68
2021/04/24 07:07:43;;;;;;;5.12;1.20;;;;;;;15.34;30.42;99145.89;1766907;80;21007;-69
2021/04/24 07:10:13;;;;;;;3.83;1.02;;;;;;;15.96;30.43;99152.91;1747867;80;21093;-69
2021/04/24 07:12:41;;;;;;;2.20;1.07;;;;;;;16.41;27.71;99123.41;1774844;80;21512;-70
2021/04/24 07:15:12;;;;;;;3.67;1.00;;;;;;;14.50;29.70;99141.84;1755573;80;21035;-69
2021/04/24 07:17:40;;;;;;;4.17;1.62;;;;;;;13.08;32.09;99149.91;1755678;80;21055;-66
2021/04/24 07:20:12;;;;;;;4.00;1.20;;;;;;;12.93;33.10;99153.30;1777139;80;21074;-68
2021/04/24 07:22:40;;;;;;;2.75;0.98;;;;;;;13.43;32.80;99124.54;1778181;79;20987;-68
2021/04/24 07:25:09;;;;;;;3.95;1.22;;;;;;;13.31;30.54;99152.62;1770737;80;21039;-69
2021/04/24 07:27:37;;;;;;;5.22;1.42;;;;;;;13.64;30.73;99150.53;1774042;80;21063;-66
2021/04/24 07:30:10;;;;;;;2.98;0.90;;;;;;;14.45;30.27;99165.65;1774784;80;21231;-68
2021/04/24 07:32:39;;;;;;;3.95;1.02;;;;;;;15.02;29.07;99160.36;1766926;80;21649;-65
2021/04/24 07:35:11;;;;;;;2.70;1.12;;;;;;;14.91;28.68;99152.17;1771349;80;21093;-66
2021/04/24 07:37:44;;;;;;;7.07;1.53;;;;;;;13.25;29.61;99162.50;1772607;80;21020;-68
2021/04/24 07:40:20;;;;;;;4.55;1.17;;;;;;;11.61;32.57;99167.84;1773183;80;21062;-68
2021/04/24 07:42:49;;;;;;;6.83;1.10;;;;;;;10.56;33.98;99138.62;1770511;80;21182;-66
2021/04/24 07:45:17;;;;;;;2.37;1.22;;;;;;;10.05;34.83;99148.98;1765466;79;21078;-67
2021/04/24 07:47:45;;;;;;;2.20;0.90;;;;;;;10.55;34.59;99167.83;1770541;79;21073;-68
2021/04/24 07:50:19;;;;;;;3.92;1.20;;;;;;;11.44;33.43;99178.42;1787995;79;21039;-67
2021/04/24 07:52:47;;;;;;;5.55;1.37;;;;;;;12.18;32.84;99172.24;1789340;80;21050;-66
2021/04/24 07:55:16;;;;;;;4.37;1.17;;;;;;;12.90;31.59;99174.42;1788488;80;21031;-66
2021/04/24 07:57:45;;;;;;;5.22;1.12;;;;;;;12.34;32.18;99152.55;1789386;80;21041;-66
2021/04/24 08:00:17;;;;;;;2.37;0.90;;;;;;;11.69;32.24;99161.45;1788526;79;21043;-65
2021/04/24 08:02:44;;;;;;;2.55;0.90;;;;;;;10.81;33.02;99182.81;1787664;80;21189;-65
2021/04/24 08:05:16;;;;;;;4.03;0.93;;;;;;;10.47;34.25;99181.05;1780105;80;21062;-64
2021/04/24 08:07:46;;;;;;;5.58;1.37;;;;;;;11.25;33.67;99173.48;1785959;80;21043;-67
2021/04/24 08:10:14;;;;;;;3.80;1.07;;;;;;;11.51;33.71;99160.41;1773150;80;21173;-66
2021/04/24 08:12:42;;;;;;;4.72;1.02;;;;;;;11.23;34.24;99179.05;1775971;79;21153;-68
2021/04/24 08:15:12;;;;;;;3.00;0.93;;;;;;;10.33;35.08;99182.55;1772873;80;21248;-69
2021/04/24 08:17:40;;;;;;;4.87;1.20;;;;;;;9.32;34.83;99156.75;1773321;80;21054;-66
2021/04/24 08:20:12;;;;;;;3.17;0.93;;;;;;;9.21;36.29;99193.02;1771874;79;21113;-67
2021/04/24 08:22:41;;;;;;;3.17;1.10;;;;;;;9.78;35.93;99164.02;1700715;82;21083;-68
2021/04/24 08:25:13;;;;;;;6.00;1.02;;;;;;;10.35;35.62;99191.18;1722966;83;21005;-67
2021/04/24 08:27:41;;;;;;;7.80;1.15;;;;;;;10.09;35.92;99182.58;1727339;82;21046;-66
2021/04/24 08:30:13;;;;;;;2.35;0.95;;;;;;;9.70;36.77;99191.38;1727093;82;21061;-66
2021/04/24 08:32:45;;;;;;;4.40;1.32;;;;;;;10.91;35.53;99194.99;1726172;82;21491;-67
2021/04/24 08:35:14;;;;;;;4.87;1.30;;;;;;;11.79;33.39;99172.75;1709326;84;21062;-67
2021/04/24 08:37:44;;;;;;;5.03;1.30;;;;;;;11.65;33.60;99196.76;1738034;80;21054;-67
2021/04/24 08:40:15;;;;;;;3.05;0.98;;;;;;;10.96;34.37;99182.16;1751129;81;21083;-68
2021/04/24 08:42:47;;;;;;;2.60;0.80;;;;;;;10.33;35.73;99208.34;1739091;82;21074;-66
2021/04/24 08:45:17;;;;;;;4.00;0.93;;;;;;;9.92;36.23;99202.94;1727567;82;21045;-66
2021/04/24 08:47:51;;;;;;;2.60;0.98;;;;;;;10.29;35.81;99196.26;1709069;84;21062;-68
2021/04/24 08:50:26;;;;;;;4.83;0.75;;;;;;;10.17;35.87;99192.59;1709079;84;21292;-68
2021/04/24 08:52:56;;;;;;;6.00;1.10;;;;;;;9.76;36.21;99197.91;1708960;84;21589;-68
2021/04/24 08:55:30;;;;;;;5.08;1.10;;;;;;;9.32;37.67;99192.80;1714695;82;21067;-67
2021/04/24 08:57:59;;;;;;;2.75;1.12;;;;;;;8.85;38.64;99169.55;1738657;82;21222;-67
2021/04/24 09:00:31;;;;;;;2.00;0.93;;;;;;;8.93;38.87;99191.98;1726074;82;21142;-68
2021/04/24 09:02:59;;;;;;;;;;;;;;;8.91;39.09;99185.11;1744650;81;21183;-66
2021/04/24 09:05:27;;;;;;;2.60;1.02;;;;;;;8.61;39.81;99202.45;1709015;84;20129;-67
2021/04/24 09:08:07;;;;;;;4.65;0.90;;;;;;;8.41;40.07;99204.14;1718484;83;21059;-67
2021/04/24 09:10:45;;;;;;;4.72;1.17;;;;;;;8.37;40.75;99199.75;1735592;82;21196;-68
2021/04/24 09:13:20;;;;;;;2.92;1.20;;;;;;;8.46;41.82;99205.54;1737962;82;21623;-66
2021/04/24 09:15:50;;;;;;;4.15;1.30;;;;;;;8.64;41.93;99206.38;1742605;82;21200;-67
2021/04/24 09:18:20;;;;;;;5.00;1.05;;;;;;;9.10;41.40;99206.08;1756462;82;21217;-66
2021/04/24 09:20:57;;;;;;;2.87;1.00;;;;;;;9.08;39.63;99211.61;1753478;82;21227;-68
2021/04/24 09:23:34;;;;;;;5.78;1.40;;;;;;;9.04;39.84;99154.05;1723560;80;21472;-68
2021/04/24 09:26:09;;;;;;;2.50;1.00;;;;;;;8.36;40.82;99174.84;1722049;82;21487;-68
2021/04/24 09:28:42;;;;;;;4.22;1.10;;;;;;;7.87;42.26;99205.80;1749906;80;21193;-66
2021/04/24 09:31:22;;;;;;;10.00;2.40;;;;;;;7.86;42.61;99197.64;1759151;80;21050;-64
2021/04/24 09:33:54;;;;;;;3.52;1.20;;;;;;;7.87;44.14;99208.36;1771714;79;21193;-66
2021/04/24 09:36:26;;;;;;;2.70;1.00;;;;;;;7.88;43.42;99212.66;1770654;80;21086;-67
2021/04/24 09:38:54;;;;;;;3.47;0.80;;;;;;;7.86;42.50;99204.45;1767839;79;21059;-64
2021/04/24 09:41:25;;;;;;;4.40;2.02;;;;;;;7.66;42.35;99209.07;1780753;79;21095;-65
2021/04/24 09:44:09;;;;;;;3.55;1.37;;;;;;;7.60;42.45;99207.22;1749902;81;21071;-65
2021/04/24 09:46:48;;;;;;;3.08;1.60;;;;;;;7.64;42.48;99199.20;1714097;84;21062;-64
2021/04/24 09:49:27;;;;;;;8.23;2.98;;;;;;;7.53;42.91;99197.60;1749974;82;21051;-56
2021/04/24 09:52:00;;;;;;;2.45;1.00;;;;;;;7.58;43.50;99199.88;1714132;82;21126;-67
2021/04/24 09:54:38;;;;;;;9.43;4.10;;;;;;;7.34;42.88;99211.66;1749892;81;21181;-74
2021/04/24 09:57:21;;;;;;;4.75;1.80;;;;;;;7.15;43.62;99204.72;1714056;84;21253;-55
2021/04/24 10:00:03;;;;;;;5.67;1.30;;;;;;;7.31;43.42;99201.30;1750025;81;21051;-62
2021/04/24 10:02:43;;;;;;;2.42;0.93;;;;;;;7.32;42.83;99210.73;1749544;81;21528;-63
2021/04/24 10:05:18;;;;;;;4.17;1.25;;;;;;;7.36;42.98;99193.31;1749973;81;21058;-65
2021/04/24 10:07:50;;;;;;;4.87;0.88;;;;;;;7.52;42.52;99212.15;1753039;79;21181;-67
2021/04/24 10:10:36;;;;;;;1.90;0.80;;;;;;;7.68;42.16;99190.72;1781020;80;21108;-65
2021/04/24 10:13:08;;;;;;;6.03;1.30;;;;;;;7.80;42.40;99218.02;1772922;80;21165;-68
2021/04/24 10:15:44;;;;;;;2.22;1.00;;;;;;;7.95;43.08;99218.84;1686329;82;21990;-68
2021/04/24 10:18:15;;;;;;;2.72;1.00;;;;;;;8.04;42.43;99196.81;1755098;80;21091;-56
2021/04/24 10:20:46;;;;;;;3.10;1.20;;;;;;;8.10;41.81;99219.64;1751468;80;21224;-61
2021/04/24 10:23:15;;;;;;;2.17;1.13;;;;;;;8.33;41.93;99213.35;1757606;80;21106;-60
2021/04/24 10:25:44;;;;;;;4.55;1.30;;;;;;;8.63;41.22;99207.22;1756900;80;21066;-62
2021/04/24 10:28:12;;;;;;;3.98;1.47;;;;;;;8.77;39.83;99212.23;1757370;80;21512;-61
2021/04/24 10:30:40;;;;;;;5.78;2.80;;;;;;;8.77;40.03;99212.66;1757378;80;21050;-59
2021/04/24 10:33:08;;;;;;;5.37;2.60;;;;;;;8.75;38.60;99186.92;1758334;80;21110;-60
2021/04/24 10:35:36;;;;;;;7.40;1.92;;;;;;;8.59;40.42;99206.69;1758202;80;21046;-61
2021/04/24 10:38:07;;;;;;;6.17;2.65;;;;;;;8.45;40.33;99213.68;1758157;80;21177;-61
2021/04/24 10:40:45;;;;;;;3.85;1.22;;;;;;;8.38;40.47;99228.89;1758218;80;21074;-61
2021/04/24 10:43:21;;;;;;;3.62;1.10;;;;;;;8.20;38.84;99189.47;1758234;81;21244;-61
2021/04/24 10:45:48;;;;;;;1.72;0.80;;;;;;;8.09;38.78;99233.30;1758307;80;21047;-61
2021/04/24 10:48:26;;;;;;;1.77;0.95;;;;;;;8.14;38.08;99218.87;1739551;82;21453;-60
2021/04/24 10:50:55;;;;;;;2.58;1.10;;;;;;;8.26;38.08;99234.59;1758048;80;21019;-60
2021/04/24 10:53:30;;;;;;;3.65;1.02;;;;;;;8.33;37.93;99223.64;1758402;80;21181;-61
2021/04/24 10:56:01;;;;;;;2.62;0.98;;;;;;;8.50;37.59;99210.33;1758111;80;21039;-59
2021/04/24 10:58:35;;;;;;;4.40;1.20;;;;;;;8.60;36.53;99227.31;1758307;80;21075;-61
2021/04/24 11:01:06;;;;;;;6.05;1.40;;;;;;;8.71;36.36;99221.13;1758277;80;21209;-60
2021/04/24 11:03:40;;;;;;;;;;;;;;;8.69;36.17;99216.35;1760984;80;21074;-60
2021/04/24 11:06:17;;;;;;;4.42;1.00;;;;;;;8.55;36.23;99235.73;1758319;80;20151;-60
2021/04/24 11:08:48;;;;;;;2.10;0.75;;;;;;;8.40;35.79;99231.98;1758107;80;21051;-60
2021/04/24 11:11:21;;;;;;;2.65;0.80;;;;;;;8.35;35.91;99248.98;1757978;80;21189;-60
2021/04/24 11:13:55;;;;;;;2.83;0.82;;;;;;;8.52;36.40;99227.95;1758307;80;21185;-60
2021/04/24 11:16:32;;;;;;;3.75;1.02;;;;;;;8.73;36.49;99228.47;1758239;80;21201;-60
2021/04/24 11:18:55;;;;;;;1.90;0.90;;;;;;;8.90;36.84;99232.68;1757591;80;21516;-60
2021/04/24 11:21:27;;;;;;;1.80;0.90;;;;;;;9.31;36.66;99221.09;1758349;82;21098;-61
2021/04/24 11:24:02;;;;;;;2.85;1.00;;;;;;;9.49;36.32;99233.07;1758478;81;21531;-61
2021/04/24 11:26:38;;;;;;;2.52;1.20;;;;;;;9.50;36.09;99199.16;1757746;80;21023;-60
2021/04/24 11:29:13;;;;;;;6.35;1.52;;;;;;;9.50;35.73;99222.34;1758079;80;21177;-60
2021/04/24 11:31:57;;;;;;;2.33;1.20;;;;;;;9.56;35.78;99225.02;1758272;80;21038;-61
2021/04/24 11:34:44;;;;;;;2.02;1.02;;;;;;;9.72;35.49;99233.50;1758394;80;21180;-60
2021/04/24 11:37:23;;;;;;;3.67;1.10;;;;;;;9.52;33.58;99215.52;1758192;80;21054;-61
2021/04/24 11:40:31;;;;;;;3.02;1.02;;;;;;;9.37;33.83;99237.11;1758366;80;21062;-60
2021/04/24 11:43:06;;;;;;;2.15;0.90;;;;;;;9.54;33.00;99229.27;1758080;80;21045;-61
2021/04/24 11:45:52;;;;;;;1.27;0.70;;;;;;;9.56;33.20;99239.19;1757929;80;21015;-60
2021/04/24 11:48:50;;;;;;;2.17;0.80;;;;;;;9.59;33.60;99239.24;1758151;80;21047;-59
2021/04/24 11:51:43;;;;;;;3.62;0.90;;;;;;;9.47;33.42;99231.30;1766783;80;21062;-71
2021/04/24 11:54:32;;;;;;;2.55;0.90;;;;;;;9.48;34.08;99230.02;1773703;80;21161;-70
2021/04/24 11:57:08;;;;;;;2.35;1.10;;;;;;;9.56;33.71;99235.33;1775434;80;21035;-66